Terminal Aerodrome Forecast
Issued by NWS Flagstaff, AZ

Home | Current Version | Previous Version | Text Only | Print | Product List | Glossary On
Versions: 1 2 3 4 5 6 7 8 9 10 11 12 13 14 15 16 17 18 19 20 21 22
000
FTUS45 KFGZ 301100
TAFFLG
TAF
KFLG 301128Z 3012/0112 VRB02KT P6SM SKC
     FM301800 24010G15KT P6SM FEW250
     FM010130 VRB02KT P6SM FEW200=

USA.gov is the U.S. government's official web portal to all federal, state and local government web resources and services.